createdAt,value
2019-05-22T00:01:15.433Z,98078.00
2019-05-22T00:04:03.357Z,98084.00
2019-05-22T00:06:41.973Z,98080.00
2019-05-22T00:09:14.482Z,98092.00
2019-05-22T00:11:45.971Z,98095.00
2019-05-22T00:14:17.240Z,98099.00
2019-05-22T00:16:47.979Z,98085.00
2019-05-22T00:19:18.700Z,98089.00
2019-05-22T00:21:51.361Z,98099.00
2019-05-22T00:24:22.898Z,98096.00
2019-05-22T00:26:54.093Z,98099.00
2019-05-22T00:29:24.350Z,98101.00
2019-05-22T00:31:54.708Z,98096.00
2019-05-22T00:34:25.631Z,98096.00
2019-05-22T00:36:55.494Z,98102.00
2019-05-22T00:39:27.255Z,98092.00
2019-05-22T00:41:57.471Z,98101.00
2019-05-22T00:44:28.398Z,98098.00
2019-05-22T00:47:00.553Z,98101.00
2019-05-22T00:49:30.700Z,98103.00
2019-05-22T00:52:19.910Z,98104.00
2019-05-22T00:54:51.934Z,98106.00
2019-05-22T00:57:31.776Z,98100.00
2019-05-22T01:00:08.861Z,98106.00
2019-05-22T01:02:39.794Z,98100.00
2019-05-22T02:29:32.749Z,98116.00
2019-05-22T02:32:02.089Z,98115.00
2019-05-22T02:34:32.134Z,98120.00
2019-05-22T02:37:01.863Z,98119.00
2019-05-22T02:39:33.208Z,98118.00
2019-05-22T02:42:12.131Z,98121.00
2019-05-22T02:44:42.671Z,98123.00
2019-05-22T02:47:20.138Z,98122.00
2019-05-22T02:49:45.665Z,98122.00
2019-05-22T02:52:16.674Z,98126.00
2019-05-22T02:54:47.280Z,98134.00
2019-05-22T02:57:17.089Z,98133.00
2019-05-22T02:59:47.404Z,98134.00
2019-05-22T03:02:18.037Z,98133.00
2019-05-22T03:05:02.104Z,98137.00
2019-05-22T03:07:31.912Z,98133.00
2019-05-22T03:10:03.477Z,98134.00
2019-05-22T03:12:36.306Z,98132.00
2019-05-22T03:15:13.049Z,98142.00
2019-05-22T03:17:44.929Z,98144.00
2019-05-22T03:20:19.432Z,98141.00
2019-05-22T03:23:09.812Z,98147.00
2019-05-22T03:25:40.568Z,98146.00
2019-05-22T03:28:10.995Z,98149.00
2019-05-22T03:30:44.510Z,98146.00
2019-05-22T03:33:14.582Z,98148.00
2019-05-22T03:35:51.491Z,98152.00
2019-05-22T03:38:21.320Z,98158.00
2019-05-22T03:40:52.975Z,98154.00
2019-05-22T03:43:30.285Z,98154.00
2019-05-22T03:46:04.992Z,98159.00
2019-05-22T03:48:38.725Z,98162.00
2019-05-22T03:51:12.605Z,98157.00
2019-05-22T03:53:44.112Z,98150.00
2019-05-22T03:56:15.142Z,98152.00
2019-05-22T03:58:46.157Z,98156.00
2019-05-22T04:01:18.004Z,98157.00
2019-05-22T04:03:48.744Z,98155.00
2019-05-22T04:06:19.912Z,98159.00
2019-05-22T04:08:51.771Z,98168.00
2019-05-22T04:11:25.503Z,98165.00
2019-05-22T04:13:55.868Z,98171.00
2019-05-22T04:16:26.828Z,98171.00
2019-05-22T04:18:57.931Z,98177.00
2019-05-22T04:21:27.359Z,98178.00
2019-05-22T04:23:57.499Z,98182.00
2019-05-22T04:26:26.803Z,98180.00
2019-05-22T04:28:57.155Z,98174.00
2019-05-22T04:31:50.569Z,98188.00
2019-05-22T04:34:21.022Z,98179.00
2019-05-22T04:36:51.446Z,98180.00
2019-05-22T04:39:24.113Z,98183.00
2019-05-22T04:41:54.972Z,98188.00
2019-05-22T04:44:25.201Z,98194.00
2019-05-22T04:46:55.475Z,98192.00
2019-05-22T04:49:25.621Z,98189.00
2019-05-22T04:51:55.411Z,98197.00
2019-05-22T04:54:25.540Z,98196.00
2019-05-22T04:56:55.453Z,98203.00
2019-05-22T04:59:25.273Z,98201.00
2019-05-22T05:01:55.276Z,98201.00
2019-05-22T05:04:24.891Z,98209.00
2019-05-22T05:06:54.169Z,98202.00
2019-05-22T05:09:23.723Z,98209.00
2019-05-22T05:11:53.446Z,98210.00
2019-05-22T05:14:22.963Z,98202.00
2019-05-22T05:16:52.590Z,98210.00
2019-05-22T05:19:22.011Z,98206.00
2019-05-22T05:21:51.886Z,98212.00
2019-05-22T05:24:21.235Z,98211.00
2019-05-22T05:26:50.572Z,98213.00
2019-05-22T05:29:28.546Z,98222.00
2019-05-22T05:31:59.910Z,98222.00
2019-05-22T05:34:45.374Z,98219.00
2019-05-22T05:37:15.723Z,98216.00
2019-05-22T05:39:52.883Z,98213.00
2019-05-22T05:42:22.233Z,98229.00
2019-05-22T05:44:51.521Z,98220.00
2019-05-22T05:47:20.808Z,98218.00
2019-05-22T05:49:50.999Z,98220.00
2019-05-22T05:52:20.253Z,98223.00
2019-05-22T05:54:49.537Z,98230.00
2019-05-22T05:57:38.712Z,98222.00
2019-05-22T06:00:14.321Z,98230.00
2019-05-22T06:02:56.155Z,98241.00
2019-05-22T06:05:14.933Z,98236.00
2019-05-22T06:07:44.212Z,98239.00
2019-05-22T06:10:30.256Z,98248.00
2019-05-22T06:13:00.494Z,98235.00
2019-05-22T06:15:47.967Z,98241.00
2019-05-22T06:18:35.526Z,98237.00
2019-05-22T06:21:07.188Z,98240.00
2019-05-22T06:23:44.940Z,98237.00
2019-05-22T06:26:28.516Z,98240.00
2019-05-22T06:28:58.411Z,98246.00
2019-05-22T06:32:04.110Z,98246.00
2019-05-22T06:34:34.112Z,98261.00
2019-05-22T06:37:12.442Z,98259.00
2019-05-22T06:39:41.998Z,98259.00
2019-05-22T06:42:12.177Z,98259.00
2019-05-22T06:44:43.267Z,98265.00
2019-05-22T06:47:15.861Z,98269.00
2019-05-22T06:49:46.736Z,98264.00
2019-05-22T06:52:16.364Z,98264.00
2019-05-22T06:54:46.011Z,98272.00
2019-05-22T06:57:17.103Z,98275.00
2019-05-22T06:59:47.635Z,98275.00
2019-05-22T07:02:17.719Z,98274.00
2019-05-22T07:04:48.243Z,98259.00
2019-05-22T07:07:18.372Z,98269.00
2019-05-22T07:09:48.398Z,98269.00
2019-05-22T07:12:20.517Z,98274.00
2019-05-22T07:15:11.419Z,98273.00
2019-05-22T07:17:41.929Z,98285.00
2019-05-22T07:20:13.262Z,98284.00
2019-05-22T07:22:43.439Z,98284.00
2019-05-22T07:25:15.238Z,98280.00
2019-05-22T07:27:45.028Z,98288.00
2019-05-22T07:30:15.185Z,98280.00
2019-05-22T07:32:44.635Z,98300.00
2019-05-22T07:35:15.924Z,98293.00
2019-05-22T07:37:47.801Z,98282.00
2019-05-22T07:40:18.891Z,98292.00
2019-05-22T07:42:50.633Z,98293.00
2019-05-22T07:45:22.923Z,98292.00
2019-05-22T07:47:53.954Z,98289.00
2019-05-22T07:50:24.455Z,98290.00
2019-05-22T07:52:53.991Z,98290.00
2019-05-22T07:55:24.184Z,98282.00
2019-05-22T07:58:01.120Z,98294.00
2019-05-22T08:00:31.353Z,98294.00
2019-05-22T08:03:00.909Z,98296.00
2019-05-22T08:05:34.135Z,98292.00
2019-05-22T08:08:05.439Z,98292.00
2019-05-22T08:10:35.210Z,98293.00
2019-05-22T08:13:04.941Z,98301.00
2019-05-22T08:15:34.439Z,98296.00
2019-05-22T08:18:03.773Z,98299.00
2019-05-22T08:20:34.099Z,98293.00
2019-05-22T08:23:03.533Z,98296.00
2019-05-22T08:25:33.717Z,98296.00
2019-05-22T08:28:03.408Z,98289.00
2019-05-22T08:30:33.179Z,98290.00
2019-05-22T08:33:08.259Z,98296.00
2019-05-22T08:35:37.706Z,98294.00
2019-05-22T08:38:09.897Z,98296.00
2019-05-22T08:41:00.340Z,98301.00
2019-05-22T08:43:32.269Z,98293.00
2019-05-22T08:46:03.181Z,98286.00
2019-05-22T08:48:34.583Z,98307.00
2019-05-22T08:51:04.681Z,98319.00
2019-05-22T08:53:46.853Z,98312.00
2019-05-22T08:56:07.449Z,98311.00
2019-05-22T08:58:39.854Z,98309.00
2019-05-22T09:01:11.344Z,98310.00
2019-05-22T09:03:41.392Z,98316.00
2019-05-22T09:06:11.734Z,98315.00
2019-05-22T09:08:41.526Z,98306.00
2019-05-22T09:11:11.278Z,98319.00
2019-05-22T09:13:40.846Z,98324.00
2019-05-22T09:16:11.020Z,98320.00
2019-05-22T09:18:40.325Z,98330.00
2019-05-22T09:21:10.125Z,98330.00
2019-05-22T09:23:40.861Z,98324.00
2019-05-22T09:26:10.877Z,98317.00
2019-05-22T09:28:40.298Z,98330.00
2019-05-22T09:31:09.654Z,98333.00
2019-05-22T09:33:39.477Z,98336.00
2019-05-22T09:36:10.635Z,98330.00
2019-05-22T09:38:39.996Z,98338.00
2019-05-22T09:41:09.449Z,98342.00
2019-05-22T09:43:38.784Z,98345.00
2019-05-22T09:46:09.259Z,98344.00
2019-05-22T09:48:39.357Z,98341.00
2019-05-22T09:51:08.801Z,98337.00
2019-05-22T09:53:38.876Z,98339.00
2019-05-22T09:56:08.807Z,98338.00
2019-05-22T09:58:38.392Z,98339.00
2019-05-22T10:01:11.968Z,98348.00
2019-05-22T10:03:40.777Z,98345.00
2019-05-22T10:06:11.531Z,98352.00
2019-05-22T10:08:41.426Z,98347.00
2019-05-22T10:11:11.240Z,98353.00
2019-05-22T10:13:41.259Z,98357.00
2019-05-22T10:16:10.538Z,98356.00
2019-05-22T10:18:40.135Z,98357.00
2019-05-22T10:21:10.267Z,98353.00
2019-05-22T10:23:39.899Z,98363.00
2019-05-22T10:26:09.418Z,98367.00
2019-05-22T10:28:39.939Z,98360.00
2019-05-22T10:31:10.901Z,98355.00
2019-05-22T10:33:40.913Z,98357.00
2019-05-22T10:36:10.649Z,98352.00
2019-05-22T10:38:40.081Z,98351.00
2019-05-22T10:41:10.236Z,98356.00
2019-05-22T10:43:41.689Z,98357.00
2019-05-22T10:46:12.009Z,98370.00
2019-05-22T10:48:41.605Z,98368.00
2019-05-22T10:51:11.676Z,98373.00
2019-05-22T10:53:41.086Z,98367.00
2019-05-22T10:56:11.427Z,98368.00
2019-05-22T10:58:41.027Z,98358.00
2019-05-22T11:01:10.618Z,98356.00
2019-05-22T11:03:40.031Z,98360.00
2019-05-22T11:06:09.893Z,98357.00
2019-05-22T11:08:40.132Z,98370.00
2019-05-22T11:11:10.268Z,98362.00
2019-05-22T11:13:40.610Z,98356.00
2019-05-22T11:16:10.227Z,98362.00
2019-05-22T11:18:39.908Z,98366.00
2019-05-22T11:21:09.429Z,98363.00
2019-05-22T11:23:51.517Z,98368.00
2019-05-22T11:26:10.122Z,98360.00
2019-05-22T11:28:40.357Z,98358.00
2019-05-22T11:31:10.992Z,98364.00
2019-05-22T11:33:41.102Z,98369.00
2019-05-22T11:36:11.837Z,98364.00
2019-05-22T11:38:41.493Z,98368.00
2019-05-22T11:41:11.665Z,98368.00
2019-05-22T11:43:40.958Z,98359.00
2019-05-22T11:46:10.367Z,98365.00
2019-05-22T11:48:39.969Z,98365.00
2019-05-22T11:51:09.682Z,98359.00
2019-05-22T11:53:39.295Z,98363.00
2019-05-22T11:56:08.841Z,98361.00
2019-05-22T11:58:38.352Z,98364.00
2019-05-22T12:01:09.647Z,98365.00
2019-05-22T12:03:39.974Z,98364.00
2019-05-22T12:06:10.096Z,98367.00
2019-05-22T12:08:40.636Z,98377.00
2019-05-22T12:11:12.851Z,98375.00
2019-05-22T12:13:43.079Z,98372.00
2019-05-22T12:16:13.228Z,98383.00
2019-05-22T12:18:42.590Z,98370.00
2019-05-22T12:21:12.478Z,98372.00
2019-05-22T12:23:42.059Z,98376.00
2019-05-22T12:26:12.274Z,98376.00
2019-05-22T12:28:41.995Z,98377.00
2019-05-22T12:31:12.262Z,98371.00
2019-05-22T12:33:41.505Z,98390.00
2019-05-22T12:36:12.395Z,98377.00
2019-05-22T12:38:42.339Z,98366.00
2019-05-22T12:41:13.417Z,98373.00
2019-05-22T12:43:45.039Z,98379.00
2019-05-22T12:46:14.564Z,98381.00
2019-05-22T12:48:43.847Z,98374.00
2019-05-22T12:51:13.182Z,98365.00
2019-05-22T12:53:42.637Z,98371.00
2019-05-22T12:56:12.378Z,98367.00
2019-05-22T12:58:42.734Z,98372.00
2019-05-22T13:01:12.850Z,98372.00
2019-05-22T13:03:42.766Z,98370.00
2019-05-22T13:06:13.256Z,98381.00
2019-05-22T13:08:43.953Z,98377.00
2019-05-22T13:11:14.642Z,98374.00
2019-05-22T13:13:44.088Z,98365.00
2019-05-22T13:16:14.547Z,98369.00
2019-05-22T13:18:44.995Z,98371.00
2019-05-22T13:21:18.450Z,98365.00
2019-05-22T13:23:49.467Z,98355.00
2019-05-22T13:26:19.554Z,98373.00
2019-05-22T13:28:49.271Z,98375.00
2019-05-22T13:31:20.008Z,98370.00
2019-05-22T13:33:50.467Z,98375.00
2019-05-22T13:36:20.241Z,98377.00
2019-05-22T13:38:49.788Z,98377.00
2019-05-22T13:41:19.804Z,98380.00
2019-05-22T13:43:50.500Z,98372.00
2019-05-22T13:46:19.955Z,98371.00
2019-05-22T13:48:49.718Z,98370.00
2019-05-22T13:51:19.358Z,98361.00
2019-05-22T13:53:50.116Z,98367.00
2019-05-22T13:56:19.761Z,98374.00
2019-05-22T13:58:49.816Z,98369.00
2019-05-22T14:01:21.022Z,98380.00
2019-05-22T14:03:50.859Z,98369.00
2019-05-22T14:06:21.023Z,98371.00
2019-05-22T14:08:50.649Z,98374.00
2019-05-22T14:11:20.612Z,98358.00
2019-05-22T14:13:50.031Z,98366.00
2019-05-22T14:16:20.822Z,98370.00
2019-05-22T14:18:50.586Z,98367.00
2019-05-22T14:21:20.632Z,98364.00
2019-05-22T14:23:53.898Z,98367.00
2019-05-22T14:26:23.345Z,98375.00
2019-05-22T14:28:53.047Z,98364.00
2019-05-22T14:31:22.463Z,98360.00
2019-05-22T14:33:52.224Z,98360.00
2019-05-22T14:36:21.938Z,98360.00
2019-05-22T14:38:53.184Z,98359.00
2019-05-22T14:41:22.690Z,98359.00
2019-05-22T14:43:54.064Z,98360.00
2019-05-22T14:46:23.501Z,98358.00
2019-05-22T14:48:53.521Z,98352.00
2019-05-22T14:51:24.411Z,98351.00
2019-05-22T14:53:56.412Z,98351.00
2019-05-22T14:56:26.427Z,98345.00
2019-05-22T14:58:56.148Z,98352.00
2019-05-22T15:01:26.776Z,98349.00
2019-05-22T15:03:56.489Z,98357.00
2019-05-22T15:06:26.230Z,98350.00
2019-05-22T15:08:58.659Z,98342.00
2019-05-22T15:11:28.965Z,98338.00
2019-05-22T15:13:58.276Z,98344.00
2019-05-22T15:16:28.218Z,98354.00
2019-05-22T15:18:58.055Z,98342.00
2019-05-22T15:21:28.199Z,98341.00
2019-05-22T15:24:01.115Z,98346.00
2019-05-22T15:26:31.297Z,98345.00
2019-05-22T15:29:00.882Z,98343.00
2019-05-22T15:31:30.891Z,98356.00
2019-05-22T15:34:02.127Z,98343.00
2019-05-22T15:36:31.732Z,98347.00
2019-05-22T15:39:01.975Z,98351.00
2019-05-22T15:41:32.589Z,98349.00
2019-05-22T15:44:01.935Z,98351.00
2019-05-22T15:46:32.816Z,98353.00
2019-05-22T15:49:05.564Z,98347.00
2019-05-22T15:51:36.936Z,98346.00
2019-05-22T15:54:07.166Z,98354.00
2019-05-22T15:56:40.455Z,98362.00
2019-05-22T15:59:14.067Z,98358.00
2019-05-22T16:01:43.771Z,98365.00
2019-05-22T16:04:15.218Z,98366.00
2019-05-22T16:06:45.136Z,98351.00
2019-05-22T16:09:16.246Z,98360.00
2019-05-22T16:11:48.295Z,98361.00
2019-05-22T16:14:19.443Z,98355.00
2019-05-22T16:16:50.231Z,98359.00
2019-05-22T16:19:22.391Z,98353.00
2019-05-22T16:21:54.049Z,98349.00
2019-05-22T16:24:23.794Z,98355.00
2019-05-22T16:26:54.105Z,98359.00
2019-05-22T16:29:25.491Z,98353.00
2019-05-22T16:31:56.896Z,98359.00
2019-05-22T16:34:28.521Z,98359.00
2019-05-22T16:36:58.400Z,98355.00
2019-05-22T16:39:27.917Z,98356.00
2019-05-22T16:41:57.560Z,98357.00
2019-05-22T16:44:27.938Z,98359.00
2019-05-22T16:46:59.135Z,98361.00
2019-05-22T16:49:30.023Z,98355.00
2019-05-22T16:52:02.636Z,98357.00
2019-05-22T16:54:33.690Z,98357.00
2019-05-22T16:57:03.925Z,98357.00
2019-05-22T16:59:36.925Z,98352.00
2019-05-22T17:02:08.361Z,98360.00
2019-05-22T17:04:37.955Z,98363.00
2019-05-22T17:07:08.340Z,98361.00
2019-05-22T17:09:40.815Z,98358.00
2019-05-22T17:12:11.333Z,98354.00
2019-05-22T17:14:41.816Z,98356.00
2019-05-22T17:17:12.327Z,98364.00
2019-05-22T17:19:41.669Z,98355.00
2019-05-22T17:22:11.350Z,98364.00
2019-05-22T17:24:40.869Z,98361.00
2019-05-22T17:27:11.854Z,98361.00
2019-05-22T17:29:41.306Z,98364.00
2019-05-22T17:32:12.587Z,98360.00
2019-05-22T17:34:46.980Z,98366.00
2019-05-22T17:37:17.942Z,98365.00
2019-05-22T17:39:49.588Z,98363.00
2019-05-22T17:42:21.837Z,98370.00
2019-05-22T17:44:51.803Z,98372.00
2019-05-22T17:47:23.948Z,98368.00
2019-05-22T17:49:54.871Z,98371.00
2019-05-22T17:52:26.200Z,98376.00
2019-05-22T17:54:56.868Z,98376.00
2019-05-22T17:57:26.770Z,98379.00
2019-05-22T17:59:57.081Z,98381.00
2019-05-22T18:02:28.228Z,98379.00
2019-05-22T18:04:57.574Z,98384.00
2019-05-22T18:07:27.137Z,98385.00
2019-05-22T18:09:56.390Z,98383.00
2019-05-22T18:12:26.974Z,98393.00
2019-05-22T18:14:56.672Z,98391.00
2019-05-22T18:17:26.528Z,98385.00
2019-05-22T18:19:56.405Z,98387.00
2019-05-22T18:22:26.456Z,98396.00
2019-05-22T18:24:56.344Z,98394.00
2019-05-22T18:27:26.556Z,98396.00
2019-05-22T18:29:57.640Z,98395.00
2019-05-22T18:32:26.916Z,98397.00
2019-05-22T18:34:56.264Z,98405.00
2019-05-22T18:37:25.541Z,98414.00
2019-05-22T18:39:54.881Z,98407.00
2019-05-22T18:42:24.501Z,98407.00
2019-05-22T18:44:53.786Z,98406.00
2019-05-22T18:47:23.698Z,98412.00
2019-05-22T18:49:53.346Z,98414.00
2019-05-22T18:52:38.269Z,98415.00
2019-05-22T18:54:54.087Z,98414.00
2019-05-22T18:57:23.437Z,98419.00
2019-05-22T18:59:59.924Z,98413.00
2019-05-22T19:02:24.246Z,98423.00
2019-05-22T19:04:53.521Z,98412.00
2019-05-22T19:07:22.864Z,98419.00
2019-05-22T19:09:52.210Z,98423.00
2019-05-22T19:12:22.124Z,98422.00
2019-05-22T19:14:52.050Z,98427.00
2019-05-22T19:17:21.318Z,98427.00
2019-05-22T19:19:50.934Z,98428.00
2019-05-22T19:22:20.205Z,98432.00
2019-05-22T19:24:49.603Z,98431.00
2019-05-22T19:27:18.900Z,98435.00
2019-05-22T19:29:48.168Z,98433.00
2019-05-22T19:32:18.877Z,98441.00
2019-05-22T19:34:48.199Z,98443.00
2019-05-22T19:37:18.067Z,98457.00
2019-05-22T19:39:47.992Z,98451.00
2019-05-22T19:42:17.556Z,98454.00
2019-05-22T19:44:46.830Z,98459.00
2019-05-22T19:47:16.378Z,98455.00
2019-05-22T19:49:46.391Z,98461.00
2019-05-22T19:52:15.786Z,98468.00
2019-05-22T19:54:45.594Z,98458.00
2019-05-22T19:57:15.199Z,98461.00
2019-05-22T19:59:45.008Z,98476.00
2019-05-22T20:02:15.034Z,98461.00
2019-05-22T20:04:44.965Z,98461.00
2019-05-22T20:07:14.549Z,98465.00
2019-05-22T20:09:44.877Z,98458.00
2019-05-22T20:12:14.996Z,98475.00
2019-05-22T20:14:44.711Z,98468.00
2019-05-22T20:17:14.250Z,98477.00
2019-05-22T20:19:44.106Z,98479.00
2019-05-22T20:22:14.348Z,98474.00
2019-05-22T20:24:43.622Z,98470.00
2019-05-22T20:27:13.149Z,98465.00
2019-05-22T20:29:42.947Z,98472.00
2019-05-22T20:32:14.319Z,98478.00
2019-05-22T20:34:45.094Z,98478.00
2019-05-22T20:37:14.860Z,98482.00
2019-05-22T20:39:44.637Z,98477.00
2019-05-22T20:42:14.608Z,98473.00
2019-05-22T20:44:43.835Z,98479.00
2019-05-22T20:47:14.202Z,98482.00
2019-05-22T20:49:47.296Z,98484.00
2019-05-22T20:52:16.824Z,98480.00
2019-05-22T20:54:47.236Z,98481.00
2019-05-22T20:57:20.048Z,98479.00
2019-05-22T20:59:48.717Z,98477.00
2019-05-22T21:02:21.068Z,98481.00
2019-05-22T21:04:51.388Z,98472.00
2019-05-22T21:07:31.165Z,98475.00
2019-05-22T21:10:01.411Z,98469.00
2019-05-22T21:12:35.730Z,98470.00
2019-05-22T21:15:05.547Z,98474.00
2019-05-22T21:17:36.815Z,98480.00
2019-05-22T21:20:10.785Z,98481.00
2019-05-22T21:22:40.728Z,98475.00
2019-05-22T21:25:12.015Z,98480.00
2019-05-22T21:27:42.677Z,98487.00
2019-05-22T21:30:14.029Z,98478.00
2019-05-22T21:32:45.290Z,98481.00
2019-05-22T21:35:16.990Z,98478.00
2019-05-22T21:37:46.431Z,98478.00
2019-05-22T21:40:18.365Z,98473.00
2019-05-22T21:42:48.367Z,98471.00
2019-05-22T21:45:18.047Z,98473.00
2019-05-22T21:47:47.410Z,98463.00
2019-05-22T21:50:19.268Z,98460.00
2019-05-22T21:52:48.620Z,98464.00
2019-05-22T21:55:19.545Z,98470.00
2019-05-22T21:57:49.168Z,98463.00
2019-05-22T22:00:43.288Z,98464.00
2019-05-22T22:03:23.804Z,98464.00
2019-05-22T22:05:54.509Z,98465.00
2019-05-22T22:08:23.796Z,98469.00
2019-05-22T22:10:53.249Z,98472.00
2019-05-22T22:13:22.813Z,98472.00
2019-05-22T22:15:52.469Z,98465.00
2019-05-22T22:18:24.696Z,98472.00
2019-05-22T22:20:54.222Z,98472.00
2019-05-22T22:23:23.677Z,98469.00
2019-05-22T22:25:53.431Z,98475.00
2019-05-22T22:28:25.233Z,98480.00
2019-05-22T22:31:04.609Z,98476.00
2019-05-22T22:33:35.740Z,98481.00
2019-05-22T22:36:06.230Z,98477.00
2019-05-22T22:38:36.420Z,98476.00
2019-05-22T22:41:07.213Z,98484.00
2019-05-22T22:43:39.645Z,98488.00
2019-05-22T22:46:23.545Z,98482.00
2019-05-22T22:48:55.803Z,98479.00
2019-05-22T22:51:26.041Z,98474.00
2019-05-22T22:53:57.453Z,98480.00
2019-05-22T22:56:28.432Z,98478.00
2019-05-22T22:58:58.191Z,98481.00
2019-05-22T23:01:30.790Z,98482.00
2019-05-22T23:04:03.662Z,98482.00
2019-05-22T23:06:36.084Z,98483.00
2019-05-22T23:09:05.311Z,98487.00
2019-05-22T23:11:37.711Z,98479.00
2019-05-22T23:14:07.904Z,98489.00
2019-05-22T23:16:38.492Z,98482.00
2019-05-22T23:19:17.047Z,98487.00
2019-05-22T23:21:46.710Z,98491.00
2019-05-22T23:24:16.530Z,98494.00
2019-05-22T23:26:46.086Z,98496.00
2019-05-22T23:29:15.712Z,98486.00
2019-05-22T23:31:45.361Z,98488.00
2019-05-22T23:34:14.774Z,98493.00
2019-05-22T23:36:45.270Z,98492.00
2019-05-22T23:39:15.605Z,98499.00
2019-05-22T23:41:46.954Z,98492.00
2019-05-22T23:44:19.400Z,98488.00
2019-05-22T23:46:50.024Z,98492.00
2019-05-22T23:49:19.385Z,98485.00
2019-05-22T23:51:48.738Z,98493.00
2019-05-22T23:54:18.393Z,98500.00
2019-05-22T23:56:49.751Z,98489.00
2019-05-22T23:59:19.543Z,98494.00
